Time;durP1;ratioP1;P1;durP2;ratioP2;P2;SDS_P1;SDS_P2;PMS_P1;PMS_P2;Temp;Humidity;BMP_temperature;BMP_pressure;BME280_temperature;BME280_humidity;BME280_pressure;Samples;Min_cycle;Max_cycle;Signal;HPM_P1;HPM_P2
2022/03/04 00:01:16;;;;;;;45.20;24.37;;;;;;;5.04;69.69;99719.50;5097167;28;20050;-77
2022/03/04 00:03:42;;;;;;;47.87;25.23;;;;;;;5.35;67.43;99719.59;5094494;28;20187;-77
2022/03/04 00:06:07;;;;;;;47.00;24.93;;;;;;;5.57;66.48;99729.94;5096019;28;20055;-77
2022/03/04 00:08:33;;;;;;;48.92;25.73;;;;;;;5.39;67.32;99713.94;5095334;28;20061;-77
2022/03/04 00:10:59;;;;;;;47.67;25.33;;;;;;;5.13;67.52;99705.59;5095219;28;20106;-77
2022/03/04 00:13:24;;;;;;;49.60;24.90;;;;;;;5.53;66.69;99728.53;5095744;28;20062;-77
2022/03/04 00:15:50;;;;;;;44.50;25.17;;;;;;;5.62;65.63;99719.88;5096617;28;20039;-77
2022/03/04 00:18:16;;;;;;;50.55;24.77;;;;;;;5.52;66.61;99723.41;5095296;28;20035;-77
2022/03/04 00:20:42;;;;;;;55.33;25.88;;;;;;;5.31;67.37;99721.63;5095430;28;20036;-77
2022/03/04 00:23:08;;;;;;;54.30;25.87;;;;;;;5.18;68.46;99715.72;5095144;28;20024;-77
2022/03/04 00:25:33;;;;;;;50.17;25.45;;;;;;;5.33;68.17;99722.34;5095427;28;20033;-77
2022/03/04 00:27:59;;;;;;;49.05;26.38;;;;;;;5.28;66.03;99664.13;5095437;28;20045;-77
2022/03/04 00:30:24;;;;;;;51.38;24.73;;;;;;;5.54;66.76;99722.31;5096358;28;20061;-77
2022/03/04 00:32:49;;;;;;;50.78;25.40;;;;;;;5.43;67.51;99722.41;5093751;28;20098;-77
2022/03/04 00:35:15;;;;;;;51.20;24.73;;;;;;;5.58;66.45;99721.09;5095627;28;20020;-77
2022/03/04 00:37:40;;;;;;;51.15;24.88;;;;;;;5.60;65.99;99711.28;5093918;28;20320;-77
2022/03/04 00:40:07;;;;;;;52.53;25.23;;;;;;;5.50;65.83;99713.03;5096765;28;20222;-77
2022/03/04 00:42:32;;;;;;;48.55;25.85;;;;;;;5.30;66.71;99706.84;5093513;28;20035;-77
2022/03/04 00:44:58;;;;;;;48.63;24.52;;;;;;;5.18;66.96;99714.88;5095331;28;20073;-77
2022/03/04 00:47:23;;;;;;;53.13;25.73;;;;;;;5.20;67.55;99711.22;5093409;28;20077;-76
2022/03/04 00:49:49;;;;;;;50.30;25.93;;;;;;;5.43;65.75;99702.22;5094997;28;20265;-77
2022/03/04 00:52:14;;;;;;;52.42;25.20;;;;;;;5.37;66.11;99717.66;5096130;28;20037;-77
2022/03/04 00:54:40;;;;;;;47.63;25.77;;;;;;;5.36;66.52;99722.09;5095054;28;20077;-77
2022/03/04 00:57:05;;;;;;;48.67;24.73;;;;;;;5.42;65.39;99726.81;5093692;28;20324;-77
2022/03/04 00:59:31;;;;;;;50.88;27.27;;;;;;;5.39;65.55;99698.19;5093306;28;20384;-77
2022/03/04 01:01:56;;;;;;;49.38;25.38;;;;;;;5.61;64.67;99705.06;5093709;28;20028;-77
2022/03/04 01:04:22;;;;;;;48.72;25.15;;;;;;;5.39;65.07;99700.00;5094749;28;20045;-77
2022/03/04 01:06:47;;;;;;;50.05;27.40;;;;;;;5.37;65.56;99699.28;5093659;28;20039;-77
2022/03/04 01:09:13;;;;;;;50.22;25.38;;;;;;;5.69;64.86;99707.03;5092237;28;20050;-77
2022/03/04 01:11:39;;;;;;;49.53;24.90;;;;;;;5.66;64.58;99712.56;5094363;28;20035;-76
2022/03/04 01:14:06;;;;;;;53.33;25.40;;;;;;;5.58;65.43;99702.72;5093757;28;20351;-77
2022/03/04 01:16:32;;;;;;;51.85;26.70;;;;;;;5.62;65.46;99704.13;5094487;28;20039;-77
2022/03/04 01:18:57;;;;;;;55.53;27.45;;;;;;;5.73;64.60;99708.44;5092460;28;20023;-77
2022/03/04 01:21:23;;;;;;;58.55;28.00;;;;;;;5.76;64.58;99710.81;5095447;28;20024;-77
2022/03/04 01:23:48;;;;;;;48.45;26.50;;;;;;;5.75;64.20;99688.13;5093137;28;20035;-76
2022/03/04 01:26:14;;;;;;;47.97;25.90;;;;;;;5.78;65.13;99686.06;5094423;28;20024;-76
2022/03/04 01:28:40;;;;;;;49.75;26.17;;;;;;;5.96;64.39;99691.53;5093136;28;20054;-76
2022/03/04 01:31:05;;;;;;;49.58;25.77;;;;;;;5.92;63.67;99674.38;5095057;28;20024;-77
2022/03/04 01:33:31;;;;;;;47.20;24.77;;;;;;;5.83;64.45;99685.66;5092711;28;20066;-77
2022/03/04 01:35:56;;;;;;;47.47;24.70;;;;;;;5.58;64.90;99673.00;5095202;28;20077;-77
2022/03/04 01:38:22;;;;;;;51.33;25.70;;;;;;;5.57;65.66;99673.94;5093085;28;20032;-77
2022/03/04 01:40:47;;;;;;;52.13;26.58;;;;;;;5.74;64.62;99678.56;5092906;28;20038;-77
2022/03/04 01:43:13;;;;;;;49.15;25.75;;;;;;;5.56;65.04;99680.16;5093495;28;20306;-77
2022/03/04 01:45:38;;;;;;;45.92;25.23;;;;;;;5.47;65.40;99681.78;5093017;28;20078;-77
2022/03/04 01:48:04;;;;;;;53.22;26.33;;;;;;;5.31;65.69;99666.50;5094589;28;20196;-77
2022/03/04 01:50:30;;;;;;;43.78;23.85;;;;;;;5.20;66.42;99669.22;5092877;28;20024;-77
2022/03/04 01:52:55;;;;;;;54.85;26.85;;;;;;;4.99;66.80;99663.13;5094814;28;20191;-77
2022/03/04 01:55:21;;;;;;;50.00;25.43;;;;;;;4.66;68.07;99664.97;5092511;28;20229;-77
2022/03/04 01:57:47;;;;;;;49.47;25.95;;;;;;;4.65;68.84;99667.72;5096865;28;20074;-76
2022/03/04 02:00:15;;;;;;;52.23;25.23;;;;;;;4.65;69.04;99676.41;5098241;28;20860;-77
2022/03/04 02:02:42;;;;;;;81.88;32.70;;;;;;;4.57;68.53;99649.16;5098837;28;20040;-77
2022/03/04 02:07:33;;;;;;;340.50;81.93;;;;;;;4.58;68.41;99664.75;5097835;28;20040;-76
2022/03/04 02:09:59;;;;;;;173.07;49.23;;;;;;;4.78;67.44;99670.97;5099399;28;20210;-77
2022/03/04 02:12:24;;;;;;;111.68;37.92;;;;;;;4.36;67.92;99656.97;5099350;28;20429;-76
2022/03/04 02:14:50;;;;;;;111.53;37.53;;;;;;;4.62;67.21;99667.97;5099090;28;20028;-76
2022/03/04 02:17:15;;;;;;;146.63;45.07;;;;;;;4.61;67.63;99669.75;5099122;28;20036;-77
2022/03/04 02:19:41;;;;;;;110.07;38.17;;;;;;;4.60;66.76;99664.63;5099224;28;20040;-77
2022/03/04 02:22:09;;;;;;;122.03;40.30;;;;;;;4.30;67.67;99652.22;5098828;28;20024;-77
2022/03/04 02:24:35;;;;;;;115.30;39.80;;;;;;;4.61;67.12;99667.13;5104002;28;20035;-77
2022/03/04 02:27:02;;;;;;;61.13;29.20;;;;;;;4.68;66.56;99656.97;5104133;28;20186;-77
2022/03/04 02:29:30;;;;;;;51.57;24.50;;;;;;;4.57;66.71;99654.41;5101170;28;20292;-77
2022/03/04 02:31:56;;;;;;;44.47;23.37;;;;;;;4.23;66.53;99627.47;5104276;28;20031;-77
2022/03/04 02:34:22;;;;;;;50.83;22.63;;;;;;;4.44;66.45;99659.81;5103066;28;20047;-77
2022/03/04 02:36:48;;;;;;;60.13;26.40;;;;;;;4.22;67.50;99650.22;5101945;28;20024;-77
2022/03/04 02:39:14;;;;;;;42.37;22.40;;;;;;;4.40;66.72;99661.84;5102171;28;20043;-77
2022/03/04 02:41:40;;;;;;;38.93;21.17;;;;;;;4.07;67.56;99657.50;5102132;28;20024;-77
2022/03/04 02:44:10;;;;;;;38.43;19.90;;;;;;;4.04;68.08;99660.38;5103586;28;20040;-77
2022/03/04 02:46:36;;;;;;;38.00;20.17;;;;;;;4.02;68.19;99662.28;5102607;28;20020;-77
2022/03/04 02:49:05;;;;;;;37.17;20.00;;;;;;;4.14;67.90;99660.47;5103050;28;20036;-76
2022/03/04 02:51:30;;;;;;;38.90;21.20;;;;;;;4.00;68.13;99658.13;5100314;28;20104;-76
2022/03/04 02:53:56;;;;;;;39.23;20.30;;;;;;;4.04;68.54;99649.91;5095906;28;20052;-76
2022/03/04 02:56:22;;;;;;;35.27;19.07;;;;;;;4.27;67.69;99665.59;5098018;28;20103;-76
2022/03/04 02:58:47;;;;;;;39.40;19.50;;;;;;;4.33;67.35;99665.09;5096006;28;20226;-76
2022/03/04 03:01:13;;;;;;;36.22;19.25;;;;;;;4.40;66.54;99671.50;5098331;28;20218;-77
2022/03/04 03:03:39;;;;;;;33.63;18.13;;;;;;;4.53;66.25;99669.53;5095766;28;20512;-77
2022/03/04 03:06:05;;;;;;;37.03;19.50;;;;;;;4.51;66.32;99673.25;5097197;28;20027;-77
2022/03/04 03:08:31;;;;;;;36.93;18.93;;;;;;;4.36;66.40;99660.44;5126873;27;20070;-77
2022/03/04 03:10:56;;;;;;;33.87;19.07;;;;;;;4.38;66.17;99655.06;5097912;28;20055;-77
2022/03/04 03:13:22;;;;;;;37.77;20.70;;;;;;;4.53;66.35;99672.16;5097179;28;20068;-77
2022/03/04 03:15:49;;;;;;;44.33;22.73;;;;;;;4.54;66.37;99678.25;5095847;28;20036;-77
2022/03/04 03:18:15;;;;;;;40.23;20.47;;;;;;;4.37;66.55;99684.84;5098233;28;20121;-77
2022/03/04 03:20:40;;;;;;;47.00;24.33;;;;;;;4.26;66.99;99680.47;5095000;28;20036;-77
2022/03/04 03:23:06;;;;;;;42.03;22.00;;;;;;;4.02;68.44;99682.41;5097861;28;20060;-77
2022/03/04 03:25:31;;;;;;;39.40;20.85;;;;;;;4.07;68.46;99668.00;5095321;28;20203;-77
2022/03/04 03:27:57;;;;;;;38.95;20.42;;;;;;;4.08;68.46;99680.13;5097481;28;20096;-77
2022/03/04 03:30:23;;;;;;;44.03;21.57;;;;;;;4.18;67.79;99687.28;5095884;28;20246;-77
2022/03/04 03:32:48;;;;;;;46.03;21.70;;;;;;;4.24;67.38;99681.56;5096248;28;20070;-77
2022/03/04 03:35:14;;;;;;;35.60;19.53;;;;;;;4.20;67.47;99691.47;5094396;28;20040;-76
2022/03/04 03:37:39;;;;;;;34.53;20.33;;;;;;;4.25;67.40;99683.22;5096027;28;20016;-77
2022/03/04 03:40:07;;;;;;;43.03;21.97;;;;;;;4.27;66.91;99681.31;5095933;28;20322;-77
2022/03/04 03:42:33;;;;;;;44.63;23.07;;;;;;;4.27;67.08;99687.38;5095949;28;20150;-77
2022/03/04 03:44:58;;;;;;;37.50;20.93;;;;;;;3.95;67.47;99668.13;5097288;28;20032;-77
2022/03/04 03:47:24;;;;;;;39.93;20.43;;;;;;;3.78;68.14;99670.31;5095802;28;20027;-77
2022/03/04 03:49:49;;;;;;;48.73;20.43;;;;;;;4.12;67.52;99701.69;5096647;28;20333;-77
2022/03/04 03:52:14;;;;;;;36.00;21.43;;;;;;;4.19;67.19;99702.91;5095176;28;20257;-77
2022/03/04 03:54:40;;;;;;;37.63;19.83;;;;;;;4.17;66.95;99683.84;5097458;28;20091;-76
2022/03/04 03:57:06;;;;;;;40.65;21.30;;;;;;;4.04;67.07;99657.75;5095361;28;20151;-76
2022/03/04 03:59:31;;;;;;;41.90;21.37;;;;;;;4.16;66.76;99693.50;5095465;28;20115;-76
2022/03/04 04:01:58;;;;;;;47.17;21.87;;;;;;;4.35;65.81;99692.84;5096639;28;20040;-77
2022/03/04 04:04:24;;;;;;;46.60;22.77;;;;;;;4.30;66.51;99700.25;5095511;28;20028;-77
2022/03/04 04:06:50;;;;;;;56.87;23.10;;;;;;;4.41;65.30;99691.50;5096041;28;20033;-77
2022/03/04 04:09:16;;;;;;;51.40;24.45;;;;;;;4.07;66.29;99699.44;5094915;28;20356;-77
2022/03/04 04:11:43;;;;;;;45.47;24.53;;;;;;;3.50;68.17;99696.97;5096351;28;20017;-77
2022/03/04 04:14:09;;;;;;;44.87;22.00;;;;;;;3.36;68.88;99674.47;5094655;28;20070;-77
2022/03/04 04:16:35;;;;;;;40.97;20.70;;;;;;;3.55;67.60;99673.88;5096828;28;20044;-77
2022/03/04 04:19:01;;;;;;;38.33;20.43;;;;;;;3.77;67.58;99697.44;5094531;28;20431;-77
2022/03/04 04:21:27;;;;;;;39.53;19.93;;;;;;;3.76;67.60;99705.41;5096105;28;20051;-77
2022/03/04 04:23:54;;;;;;;38.70;19.43;;;;;;;3.79;67.32;99705.19;5094377;28;20048;-77
2022/03/04 04:26:20;;;;;;;38.00;18.83;;;;;;;3.77;67.05;99694.00;5094634;28;20038;-77
2022/03/04 04:28:46;;;;;;;36.23;18.17;;;;;;;3.77;67.24;99701.84;5096222;28;20036;-77
2022/03/04 04:31:12;;;;;;;38.10;18.53;;;;;;;3.45;67.58;99691.25;5095217;28;20024;-77
2022/03/04 04:33:37;;;;;;;32.53;17.27;;;;;;;3.53;67.55;99696.75;5095443;28;20044;-77
2022/03/04 04:36:03;;;;;;;39.83;19.80;;;;;;;3.49;67.10;99669.13;5094016;28;20024;-77
2022/03/04 04:38:28;;;;;;;42.90;24.07;;;;;;;4.01;65.99;99696.47;5095281;28;20255;-77
2022/03/04 04:40:54;;;;;;;38.57;20.10;;;;;;;4.11;65.01;99692.16;5093903;28;20034;-77
2022/03/04 04:43:20;;;;;;;37.33;19.13;;;;;;;4.03;65.43;99694.56;5095751;28;20383;-77
2022/03/04 04:45:45;;;;;;;49.00;23.47;;;;;;;3.87;65.28;99660.06;5093767;28;20248;-77
2022/03/04 04:48:11;;;;;;;65.07;26.33;;;;;;;4.12;64.69;99701.69;5095542;28;20044;-77
2022/03/04 04:50:36;;;;;;;51.73;21.33;;;;;;;3.81;65.89;99691.00;5093761;28;20031;-77
2022/03/04 04:53:03;;;;;;;42.53;19.70;;;;;;;3.84;66.09;99693.38;5096293;28;20044;-77
2022/03/04 04:55:28;;;;;;;46.13;19.47;;;;;;;3.93;65.31;99689.22;5093579;28;20355;-77
2022/03/04 04:57:54;;;;;;;46.57;21.77;;;;;;;4.25;64.66;99699.78;5093365;28;20039;-77
2022/03/04 05:00:19;;;;;;;68.55;27.85;;;;;;;4.29;64.43;99697.75;5092893;28;20051;-77
2022/03/04 05:02:44;;;;;;;74.50;30.87;;;;;;;4.25;64.46;99699.78;5094308;28;20016;-77
2022/03/04 05:05:10;;;;;;;56.53;26.70;;;;;;;4.23;64.64;99704.31;5093878;28;20034;-77
2022/03/04 05:07:36;;;;;;;55.13;26.00;;;;;;;4.24;64.58;99710.38;5094323;28;20066;-77
2022/03/04 05:10:03;;;;;;;46.57;22.37;;;;;;;4.09;64.66;99694.06;5093621;28;20052;-76
2022/03/04 05:12:29;;;;;;;50.30;23.17;;;;;;;4.25;64.05;99705.03;5093157;28;20032;-77
2022/03/04 05:14:55;;;;;;;84.65;27.45;;;;;;;4.31;64.19;99708.94;5095841;28;20103;-77
2022/03/04 05:17:20;;;;;;;75.43;24.80;;;;;;;4.39;63.43;99710.00;5093461;28;20035;-77
2022/03/04 05:19:46;;;;;;;48.63;19.33;;;;;;;4.34;63.81;99695.59;5094979;28;20218;-77
2022/03/04 05:22:11;;;;;;;43.10;19.50;;;;;;;4.07;64.37;99698.59;5093156;28;20103;-77
2022/03/04 05:24:37;;;;;;;47.33;22.50;;;;;;;4.32;64.01;99718.47;5094706;28;20036;-77
2022/03/04 05:27:02;;;;;;;45.67;21.80;;;;;;;4.25;64.39;99714.69;5093554;28;20044;-77
2022/03/04 05:29:28;;;;;;;39.63;18.50;;;;;;;4.52;63.88;99722.94;5093790;28;20028;-77
2022/03/04 05:31:53;;;;;;;42.03;19.43;;;;;;;4.34;63.42;99679.88;5093863;28;20028;-77
2022/03/04 05:34:19;;;;;;;51.00;20.67;;;;;;;4.20;64.86;99728.16;5093915;28;20043;-77
2022/03/04 05:36:44;;;;;;;48.10;21.63;;;;;;;4.36;64.52;99728.59;5093293;28;20045;-77
2022/03/04 05:39:10;;;;;;;56.73;23.07;;;;;;;4.20;64.95;99724.69;5093162;28;20090;-77
2022/03/04 05:41:35;;;;;;;61.53;23.97;;;;;;;4.15;64.83;99715.38;5095076;28;20091;-77
2022/03/04 05:44:03;;;;;;;54.97;25.07;;;;;;;4.28;64.85;99724.91;5092848;28;20256;-77
2022/03/04 05:46:29;;;;;;;64.07;26.17;;;;;;;4.33;64.90;99736.69;5094721;28;20063;-77
2022/03/04 05:48:55;;;;;;;75.65;28.30;;;;;;;4.20;64.89;99714.22;5093063;28;20306;-77
2022/03/04 05:51:20;;;;;;;50.13;23.58;;;;;;;4.42;63.87;99719.41;5093940;28;20044;-77
2022/03/04 05:53:46;;;;;;;45.63;21.65;;;;;;;4.28;64.53;99735.41;5093250;28;20342;-77
2022/03/04 05:56:11;;;;;;;55.23;22.57;;;;;;;4.38;64.67;99715.34;5093841;28;20027;-77
2022/03/04 05:58:38;;;;;;;43.40;20.40;;;;;;;4.45;65.62;99732.25;5093700;28;20043;-77
2022/03/04 06:01:06;;;;;;;51.43;20.07;;;;;;;4.56;64.53;99739.25;5093857;28;20099;-77
2022/03/04 06:03:32;;;;;;;61.83;22.90;;;;;;;4.33;65.68;99741.09;5094505;28;20104;-77
2022/03/04 06:05:58;;;;;;;46.65;22.35;;;;;;;4.47;65.16;99730.34;5092531;28;20339;-77
2022/03/04 06:08:23;;;;;;;59.92;23.38;;;;;;;4.39;65.19;99723.09;5094252;28;20055;-77
2022/03/04 06:10:50;;;;;;;52.07;26.00;;;;;;;4.70;64.72;99750.31;5091313;28;20329;-77
2022/03/04 06:13:15;;;;;;;50.37;25.80;;;;;;;4.77;63.85;99734.91;5094824;28;20036;-77
2022/03/04 06:15:41;;;;;;;50.67;24.38;;;;;;;4.91;63.79;99749.50;5093209;28;20024;-76
2022/03/04 06:18:07;;;;;;;56.90;24.02;;;;;;;5.07;63.09;99739.41;5093238;28;20032;-77
2022/03/04 06:20:32;;;;;;;55.60;22.58;;;;;;;5.22;63.03;99737.34;5099069;28;20028;-77
2022/03/04 06:22:58;;;;;;;41.38;20.05;;;;;;;5.17;63.57;99748.19;5099957;28;20028;-77
2022/03/04 06:25:24;;;;;;;41.95;21.40;;;;;;;5.09;63.16;99742.75;5099347;28;20036;-78
2022/03/04 06:27:55;;;;;;;48.85;22.85;;;;;;;5.20;63.43;99739.22;5098565;28;20038;-77
2022/03/04 06:30:20;;;;;;;51.28;24.92;;;;;;;5.29;63.75;99749.00;5099947;28;20039;-77
2022/03/04 06:32:47;;;;;;;59.85;26.95;;;;;;;5.43;63.24;99752.13;5098342;28;20032;-77
2022/03/04 06:35:13;;;;;;;62.92;30.35;;;;;;;5.40;63.11;99734.00;5098664;28;20070;-77
2022/03/04 06:37:38;;;;;;;61.33;27.87;;;;;;;5.72;62.21;99743.56;5099305;28;20341;-77
2022/03/04 06:40:06;;;;;;;55.13;25.38;;;;;;;5.74;62.84;99758.22;5097743;28;20040;-77
2022/03/04 06:42:32;;;;;;;45.80;23.17;;;;;;;5.76;62.75;99756.31;5099525;28;20036;-77
2022/03/04 06:44:57;;;;;;;52.70;26.88;;;;;;;5.88;62.63;99753.59;5098667;28;20241;-77
2022/03/04 06:47:23;;;;;;;62.45;27.10;;;;;;;6.05;61.14;99745.94;5097600;28;20028;-77
2022/03/04 06:49:48;;;;;;;65.70;29.50;;;;;;;6.08;61.43;99726.44;5098615;28;20370;-77
2022/03/04 06:52:14;;;;;;;72.28;28.45;;;;;;;6.24;61.11;99742.56;5098671;28;20039;-77
2022/03/04 06:54:40;;;;;;;69.05;28.15;;;;;;;6.42;60.02;99737.50;5098641;28;20089;-77
2022/03/04 06:57:05;;;;;;;43.88;19.75;;;;;;;6.17;61.03;99716.91;5099396;28;20181;-77
2022/03/04 06:59:31;;;;;;;48.75;21.52;;;;;;;6.22;61.59;99744.47;5099104;28;20048;-77
2022/03/04 07:01:56;;;;;;;51.55;25.55;;;;;;;6.16;61.64;99731.84;5099235;28;20035;-77
2022/03/04 07:04:22;;;;;;;48.50;23.92;;;;;;;6.26;62.03;99739.81;5097507;28;20032;-77
2022/03/04 07:06:47;;;;;;;51.67;23.13;;;;;;;6.18;61.85;99743.06;5099367;28;20035;-77
2022/03/04 07:09:13;;;;;;;49.30;22.17;;;;;;;6.32;61.40;99740.09;5099237;28;20032;-77
2022/03/04 07:11:38;;;;;;;53.33;24.20;;;;;;;6.30;61.19;99731.50;5102399;28;20269;-77
2022/03/04 07:14:04;;;;;;;45.03;24.17;;;;;;;6.31;62.13;99743.69;5101497;28;20040;-77
2022/03/04 07:16:30;;;;;;;55.17;26.73;;;;;;;6.37;61.88;99742.31;5102360;28;20067;-78
2022/03/04 07:18:56;;;;;;;41.70;21.80;;;;;;;6.63;60.85;99748.72;5100060;28;20028;-77
2022/03/04 07:21:21;;;;;;;55.35;24.10;;;;;;;6.59;60.56;99736.81;5101810;28;20039;-77
2022/03/04 07:23:47;;;;;;;52.85;26.83;;;;;;;6.69;59.81;99742.91;5101625;28;20325;-77
2022/03/04 07:26:12;;;;;;;55.47;26.17;;;;;;;6.89;60.20;99743.75;5099691;28;20051;-77
2022/03/04 07:28:38;;;;;;;45.63;23.92;;;;;;;6.99;59.19;99730.59;5102021;28;20031;-77
2022/03/04 07:31:04;;;;;;;44.08;22.75;;;;;;;7.24;58.07;99742.34;5102000;28;20035;-77
2022/03/04 07:33:29;;;;;;;41.83;22.52;;;;;;;7.48;57.50;99740.13;5100339;28;20066;-77
2022/03/04 07:35:55;;;;;;;49.33;23.55;;;;;;;7.54;57.79;99744.81;5100458;28;20050;-77
2022/03/04 07:38:20;;;;;;;51.17;24.60;;;;;;;7.69;56.69;99739.91;5101437;28;20036;-77
2022/03/04 07:40:45;;;;;;;49.28;22.88;;;;;;;7.91;56.30;99746.63;5099434;28;20053;-77
2022/03/04 07:43:11;;;;;;;51.30;27.20;;;;;;;7.88;55.12;99745.13;5101273;28;20031;-77
2022/03/04 07:45:37;;;;;;;60.50;33.28;;;;;;;7.64;55.80;99748.25;5100032;28;20244;-77
2022/03/04 07:48:02;;;;;;;36.22;21.58;;;;;;;7.40;55.70;99755.81;5100427;28;20111;-77
2022/03/04 07:50:28;;;;;;;44.35;21.40;;;;;;;7.41;55.70;99730.28;5102160;28;20028;-77
2022/03/04 07:52:53;;;;;;;57.42;21.60;;;;;;;7.43;56.12;99752.06;5100458;28;20019;-77
2022/03/04 07:55:20;;;;;;;53.65;22.45;;;;;;;7.59;56.99;99749.66;5101331;28;20031;-77
2022/03/04 07:57:45;;;;;;;42.75;19.95;;;;;;;7.43;56.22;99738.88;5101435;28;20419;-77
2022/03/04 08:00:14;;;;;;;43.70;22.42;;;;;;;7.57;56.95;99747.16;5101281;28;20040;-77
2022/03/04 08:02:40;;;;;;;36.90;20.65;;;;;;;7.83;56.65;99755.28;5115867;28;20016;-77
2022/03/04 08:05:08;;;;;;;38.95;18.90;;;;;;;7.92;55.30;99740.38;5116725;28;20020;-77
2022/03/04 08:07:34;;;;;;;41.35;21.88;;;;;;;8.30;54.84;99737.56;5100036;28;20095;-77
2022/03/04 08:09:59;;;;;;;47.70;22.15;;;;;;;8.29;54.03;99743.00;5099484;28;20103;-77
2022/03/04 08:12:25;;;;;;;34.78;19.27;;;;;;;8.16;54.67;99745.97;5100781;28;20084;-77
2022/03/04 08:14:51;;;;;;;51.65;23.45;;;;;;;8.34;54.36;99735.53;5100545;28;20325;-77
2022/03/04 08:17:17;;;;;;;35.25;19.08;;;;;;;8.67;54.56;99744.63;5098736;28;20030;-78
2022/03/04 08:19:42;;;;;;;72.95;29.60;;;;;;;8.77;53.77;99728.69;5099145;28;20209;-78
2022/03/04 08:22:08;;;;;;;45.75;23.05;;;;;;;9.11;53.02;99734.13;5098618;28;20106;-78
2022/03/04 08:24:34;;;;;;;32.17;17.90;;;;;;;9.30;51.66;99733.94;5097365;28;20040;-78
2022/03/04 08:27:00;;;;;;;29.98;18.80;;;;;;;9.86;50.28;99745.88;5099603;28;20043;-75
2022/03/04 08:29:25;;;;;;;46.08;21.17;;;;;;;9.91;49.84;99752.34;5099871;28;20254;-75
2022/03/04 08:31:51;;;;;;;61.83;23.23;;;;;;;10.11;48.67;99741.53;5099010;28;20028;-78
2022/03/04 08:34:16;;;;;;;36.15;19.30;;;;;;;10.19;47.93;99739.75;5097834;28;20088;-78
2022/03/04 08:36:42;;;;;;;41.78;19.83;;;;;;;10.24;47.21;99726.06;5099590;28;20155;-77
2022/03/04 08:39:08;;;;;;;95.97;29.20;;;;;;;10.26;47.84;99737.31;5098807;28;20032;-78
2022/03/04 08:41:34;;;;;;;39.80;20.10;;;;;;;10.59;45.24;99732.97;5099672;28;20032;-76
2022/03/04 08:44:01;;;;;;;35.90;17.73;;;;;;;10.68;44.66;99742.59;5099629;28;20044;-76
2022/03/04 08:46:26;;;;;;;44.92;18.98;;;;;;;10.61;44.26;99738.09;5099241;28;20095;-77
2022/03/04 08:48:57;;;;;;;34.88;17.40;;;;;;;10.58;44.41;99735.78;5099050;28;20039;-77
2022/03/04 08:51:25;;;;;;;36.13;17.63;;;;;;;10.81;44.77;99735.00;5097211;28;20026;-78
2022/03/04 08:53:52;;;;;;;34.45;17.63;;;;;;;10.74;45.61;99723.41;5097829;28;20032;-77
2022/03/04 08:56:17;;;;;;;24.35;14.02;;;;;;;10.97;43.71;99730.72;5098414;28;20091;-77
2022/03/04 08:58:43;;;;;;;36.00;15.88;;;;;;;10.68;45.16;99742.59;5098137;28;20043;-77
2022/03/04 09:01:08;;;;;;;26.33;14.10;;;;;;;10.61;45.17;99725.69;5098626;28;20031;-77
2022/03/04 09:03:34;;;;;;;23.58;12.02;;;;;;;10.53;45.04;99741.56;5098823;28;20367;-78
2022/03/04 09:05:59;;;;;;;24.70;13.02;;;;;;;10.13;45.57;99707.81;5099752;28;20030;-77
2022/03/04 09:08:25;;;;;;;35.78;15.60;;;;;;;10.74;45.01;99731.34;5097605;28;20087;-77
2022/03/04 09:10:50;;;;;;;19.13;12.02;;;;;;;10.96;44.10;99729.06;5099119;28;20028;-77
2022/03/04 09:13:16;;;;;;;29.90;12.40;;;;;;;10.92;44.10;99725.91;5098482;28;20028;-77
2022/03/04 09:15:41;;;;;;;18.00;11.40;;;;;;;10.91;42.59;99724.25;5099474;28;20040;-77
2022/03/04 09:18:07;;;;;;;20.67;11.70;;;;;;;10.96;43.19;99735.19;5097953;28;20063;-75
2022/03/04 09:20:32;;;;;;;21.52;13.00;;;;;;;11.06;43.41;99733.19;5097237;28;20039;-77
2022/03/04 09:22:58;;;;;;;24.77;12.95;;;;;;;10.92;43.25;99731.19;5098245;28;20062;-77
2022/03/04 09:25:26;;;;;;;25.67;13.18;;;;;;;11.11;42.78;99727.41;5098563;28;20198;-78
2022/03/04 09:27:52;;;;;;;26.45;14.95;;;;;;;11.39;45.06;99723.41;5096737;28;20028;-77
2022/03/04 09:30:17;;;;;;;23.20;12.63;;;;;;;10.93;43.51;99716.97;5096648;28;20040;-78
2022/03/04 09:32:43;;;;;;;87.75;24.42;;;;;;;11.05;44.09;99730.72;5097234;28;20027;-77
2022/03/04 09:35:09;;;;;;;27.88;14.70;;;;;;;11.31;43.45;99717.28;5097323;28;20317;-77
2022/03/04 09:37:35;;;;;;;28.23;14.55;;;;;;;11.00;42.63;99722.44;5097026;28;20049;-77
2022/03/04 09:40:03;;;;;;;25.63;12.05;;;;;;;11.19;41.31;99719.44;5098871;28;20043;-77
2022/03/04 09:42:29;;;;;;;19.27;11.38;;;;;;;10.75;42.76;99700.41;5097307;28;20047;-78
2022/03/04 09:44:54;;;;;;;18.20;10.07;;;;;;;10.64;43.45;99719.25;5098638;28;20031;-77
2022/03/04 09:47:21;;;;;;;17.65;10.35;;;;;;;10.33;41.25;99711.03;5100104;28;20035;-77
2022/03/04 09:49:49;;;;;;;16.90;10.23;;;;;;;10.19;40.57;99705.34;5098759;28;20039;-77
2022/03/04 09:52:14;;;;;;;20.73;10.70;;;;;;;10.38;40.41;99709.56;5098086;28;20032;-77
2022/03/04 09:54:40;;;;;;;16.33;10.82;;;;;;;10.72;41.28;99717.44;5098604;28;20043;-78
2022/03/04 09:57:05;;;;;;;20.33;11.10;;;;;;;10.80;41.20;99711.31;5098451;28;20055;-77
2022/03/04 09:59:31;;;;;;;17.05;11.00;;;;;;;11.21;40.21;99717.47;5097299;28;20044;-77
2022/03/04 10:01:58;;;;;;;18.38;10.73;;;;;;;11.25;39.07;99716.13;5098757;28;20043;-77
2022/03/04 10:04:26;;;;;;;17.75;10.55;;;;;;;10.85;39.42;99701.91;5098397;28;20216;-77
2022/03/04 10:06:51;;;;;;;18.80;10.98;;;;;;;10.72;40.11;99704.19;5097747;28;20092;-77
2022/03/04 10:09:46;;;;;;;16.13;10.38;;;;;;;10.67;40.43;99703.88;5097772;28;20108;-77
2022/03/04 10:12:13;;;;;;;;;;;;;;;10.78;40.98;99700.06;5099727;28;20040;-77
2022/03/04 10:15:00;;;;;;;17.95;11.00;;;;;;;11.04;41.39;99691.97;5098143;28;19927;-77
2022/03/04 10:17:26;;;;;;;19.45;11.50;;;;;;;11.32;40.45;99681.81;5096206;28;20038;-77
2022/03/04 10:20:01;;;;;;;20.05;12.18;;;;;;;11.66;41.12;99689.56;5098108;28;20048;-78
2022/03/04 10:22:45;;;;;;;18.98;11.20;;;;;;;11.97;39.89;99685.19;5097644;28;20052;-77
2022/03/04 10:25:14;;;;;;;24.35;12.98;;;;;;;11.86;40.28;99685.56;5093385;28;20044;-77
2022/03/04 10:27:39;;;;;;;20.67;12.70;;;;;;;11.67;39.17;99660.22;5091972;28;20020;-78
2022/03/04 10:30:05;;;;;;;17.15;11.13;;;;;;;11.85;37.95;99680.41;5092872;28;20045;-78
2022/03/04 10:32:32;;;;;;;19.25;11.55;;;;;;;11.61;36.54;99676.81;5092464;28;20020;-77
2022/03/04 10:34:57;;;;;;;26.02;13.00;;;;;;;11.39;37.50;99674.84;5075656;28;20024;-77
2022/03/04 10:37:40;;;;;;;25.65;12.18;;;;;;;11.72;36.68;99657.88;5091156;28;20016;-78
2022/03/04 10:40:17;;;;;;;19.65;11.45;;;;;;;11.94;36.22;99668.78;5089796;28;20073;-78
2022/03/04 10:42:55;;;;;;;22.27;11.73;;;;;;;11.75;38.28;99662.84;5090931;28;20067;-78
2022/03/04 10:45:28;;;;;;;20.85;11.85;;;;;;;11.76;38.58;99668.97;5095230;28;20229;-77
2022/03/04 10:47:58;;;;;;;22.80;12.48;;;;;;;11.62;40.88;99661.72;5096850;28;20062;-77
2022/03/04 10:50:33;;;;;;;21.45;12.57;;;;;;;11.34;39.81;99659.44;5096921;28;20317;-77
2022/03/04 10:53:02;;;;;;;21.35;12.88;;;;;;;11.41;39.58;99659.59;5095079;28;20051;-77
2022/03/04 10:55:32;;;;;;;23.27;12.57;;;;;;;11.59;39.05;99656.78;5094690;28;20032;-77
2022/03/04 10:57:59;;;;;;;24.52;13.23;;;;;;;11.46;39.05;99657.31;5096561;28;20033;-77
2022/03/04 11:00:30;;;;;;;28.65;15.82;;;;;;;11.68;39.89;99637.19;5093977;28;20103;-77
2022/03/04 11:02:55;;;;;;;20.30;12.77;;;;;;;11.71;41.09;99647.44;5096509;28;20024;-77
2022/03/04 11:05:22;;;;;;;18.52;12.75;;;;;;;11.74;40.88;99647.09;5096912;28;20016;-77
2022/03/04 11:07:48;;;;;;;20.25;12.25;;;;;;;11.67;39.02;99644.31;5097258;28;20341;-77
2022/03/04 11:10:14;;;;;;;21.38;13.10;;;;;;;11.67;39.44;99636.34;5097014;28;20194;-78
2022/03/04 11:12:42;;;;;;;23.35;13.50;;;;;;;11.67;40.22;99624.91;5096784;28;20027;-77
2022/03/04 11:15:10;;;;;;;23.48;13.30;;;;;;;11.48;40.26;99623.50;5096151;28;20032;-78
2022/03/04 11:17:37;;;;;;;20.35;12.27;;;;;;;11.67;39.22;99603.69;5097129;28;20078;-78
2022/03/04 11:20:02;;;;;;;19.98;11.65;;;;;;;11.66;39.31;99628.56;5095941;28;20285;-78
2022/03/04 11:22:28;;;;;;;23.27;12.50;;;;;;;11.58;40.07;99618.00;5098029;28;20092;-78